createdAt,value
2023-03-30T00:00:18.196Z,32.69
2023-03-30T00:02:49.518Z,32.98
2023-03-30T00:05:19.138Z,32.87
2023-03-30T00:07:48.043Z,32.77
2023-03-30T00:10:19.319Z,32.69
2023-03-30T00:12:48.387Z,32.91
2023-03-30T00:15:17.971Z,32.78
2023-03-30T00:17:46.562Z,33.01
2023-03-30T00:20:15.694Z,32.70
2023-03-30T00:22:45.055Z,32.63
2023-03-30T00:25:14.727Z,32.83
2023-03-30T00:27:44.664Z,32.54
2023-03-30T00:30:15.393Z,32.66
2023-03-30T00:32:44.020Z,32.83
2023-03-30T00:35:13.483Z,32.84
2023-03-30T00:37:45.846Z,32.61
2023-03-30T00:40:20.206Z,32.16
2023-03-30T00:42:50.447Z,32.55
2023-03-30T00:45:24.400Z,32.05
2023-03-30T00:48:03.155Z,32.69
2023-03-30T00:50:36.117Z,32.54
2023-03-30T00:53:10.042Z,32.51
2023-03-30T00:55:40.148Z,32.60
2023-03-30T00:58:10.964Z,32.63
2023-03-30T01:00:40.382Z,32.54
2023-03-30T01:03:14.269Z,32.24
2023-03-30T01:05:42.886Z,32.41
2023-03-30T01:08:14.094Z,32.28
2023-03-30T01:10:42.836Z,31.91
2023-03-30T01:13:12.973Z,31.83
2023-03-30T01:15:48.076Z,32.19
2023-03-30T01:18:33.322Z,32.28
2023-03-30T01:21:49.426Z,31.82
2023-03-30T01:24:49.494Z,32.21
2023-03-30T01:27:39.467Z,31.83
2023-03-30T01:30:33.908Z,31.92
2023-03-30T01:34:14.689Z,32.26
2023-03-30T01:37:21.697Z,32.39
2023-03-30T01:39:56.833Z,31.47
2023-03-30T01:42:30.117Z,31.91
2023-03-30T01:45:02.892Z,31.85
2023-03-30T01:47:35.853Z,31.81
2023-03-30T01:50:08.782Z,31.99
2023-03-30T01:52:41.324Z,31.86
2023-03-30T01:55:14.984Z,31.70
2023-03-30T01:57:46.923Z,31.67
2023-03-30T02:00:18.028Z,31.72
2023-03-30T02:02:49.565Z,31.98
2023-03-30T02:05:18.625Z,31.47
2023-03-30T02:07:48.020Z,31.25
2023-03-30T02:10:17.878Z,31.70
2023-03-30T02:12:46.759Z,31.12
2023-03-30T02:15:15.447Z,31.55
2023-03-30T02:17:46.057Z,31.06
2023-03-30T02:20:16.524Z,31.30
2023-03-30T02:22:45.157Z,31.29
2023-03-30T02:25:14.407Z,31.02
2023-03-30T02:27:44.311Z,31.13
2023-03-30T02:30:14.079Z,31.30
2023-03-30T02:32:44.344Z,31.05
2023-03-30T02:35:25.782Z,31.03
2023-03-30T02:40:48.025Z,31.31
2023-03-30T02:43:45.031Z,31.00
2023-03-30T02:48:58.027Z,30.77
2023-03-30T02:51:40.113Z,31.00
2023-03-30T02:54:16.432Z,31.21
2023-03-30T02:56:48.575Z,31.38
2023-03-30T03:01:51.103Z,31.27
2023-03-30T03:04:22.164Z,31.38
2023-03-30T03:06:53.056Z,31.01
2023-03-30T03:11:49.665Z,31.66
2023-03-30T03:14:19.476Z,31.37
2023-03-30T03:16:48.012Z,31.01
2023-03-30T03:19:17.093Z,31.21
2023-03-30T03:24:17.394Z,31.39
2023-03-30T03:26:46.123Z,30.96
2023-03-30T03:29:14.710Z,31.86
2023-03-30T03:31:44.599Z,31.41
2023-03-30T03:34:13.076Z,31.13
2023-03-30T03:36:43.809Z,31.14
2023-03-30T03:39:12.691Z,31.16
2023-03-30T03:41:41.198Z,30.90
2023-03-30T03:44:09.603Z,31.18
2023-03-30T03:46:38.095Z,31.25
2023-03-30T03:49:08.023Z,31.33
2023-03-30T03:51:37.062Z,31.13
2023-03-30T03:54:05.750Z,31.40
2023-03-30T03:56:34.432Z,31.63
2023-03-30T03:59:03.608Z,31.50
2023-03-30T04:01:32.162Z,31.30
2023-03-30T04:04:00.588Z,31.43
2023-03-30T04:06:30.488Z,31.65
2023-03-30T04:08:58.973Z,31.93
2023-03-30T04:11:27.731Z,31.76
2023-03-30T04:13:56.240Z,31.33
2023-03-30T04:16:24.718Z,31.41
2023-03-30T04:18:53.318Z,31.03
2023-03-30T04:21:23.017Z,31.34
2023-03-30T04:23:53.241Z,31.57
2023-03-30T04:26:21.929Z,30.95
2023-03-30T04:28:53.896Z,30.93
2023-03-30T04:31:22.917Z,30.92
2023-03-30T04:33:54.781Z,30.97
2023-03-30T04:36:23.380Z,30.83
2023-03-30T04:38:59.831Z,31.07
2023-03-30T04:41:33.603Z,30.83
2023-03-30T04:44:03.670Z,30.85
2023-03-30T04:46:32.268Z,30.84
2023-03-30T04:49:00.876Z,30.84
2023-03-30T04:51:29.566Z,30.79
2023-03-30T04:53:59.431Z,30.97
2023-03-30T04:56:27.954Z,31.09
2023-03-30T04:58:56.494Z,31.05
2023-03-30T05:01:25.422Z,30.85
2023-03-30T05:03:53.986Z,31.03
2023-03-30T05:06:23.246Z,30.91
2023-03-30T05:08:51.843Z,30.85
2023-03-30T05:11:21.776Z,30.84
2023-03-30T05:13:52.599Z,31.53
2023-03-30T05:16:22.060Z,31.19
2023-03-30T05:18:51.826Z,31.43
2023-03-30T05:21:20.694Z,31.64
2023-03-30T05:23:49.241Z,31.86
2023-03-30T05:26:17.732Z,31.22
2023-03-30T05:28:48.296Z,32.35
2023-03-30T05:31:17.385Z,32.74
2023-03-30T05:33:46.797Z,32.55
2023-03-30T05:38:45.396Z,33.26
2023-03-30T05:41:14.980Z,33.12
2023-03-30T05:43:43.863Z,33.27
2023-03-30T05:46:14.193Z,33.19
2023-03-30T05:48:43.346Z,33.18
2023-03-30T05:51:12.053Z,32.95
2023-03-30T05:53:40.981Z,33.41
2023-03-30T05:56:11.062Z,33.07
2023-03-30T05:58:39.803Z,33.21
2023-03-30T06:01:09.776Z,33.43
2023-03-30T06:03:40.520Z,33.48
2023-03-30T06:06:11.089Z,33.29
2023-03-30T06:08:40.384Z,33.41
2023-03-30T06:11:09.788Z,33.83
2023-03-30T06:13:38.490Z,33.47
2023-03-30T06:16:08.202Z,33.31
2023-03-30T06:18:37.124Z,33.19
2023-03-30T06:21:08.880Z,33.58
2023-03-30T06:23:38.286Z,33.65
2023-03-30T06:26:08.989Z,33.77
2023-03-30T06:28:38.374Z,33.55
2023-03-30T06:31:10.938Z,33.70
2023-03-30T06:33:41.783Z,34.32
2023-03-30T06:36:14.588Z,34.23
2023-03-30T06:38:43.877Z,34.55
2023-03-30T06:41:12.985Z,34.37
2023-03-30T06:43:41.878Z,34.24
2023-03-30T06:46:11.535Z,34.25
2023-03-30T06:48:40.272Z,34.30
2023-03-30T06:51:09.537Z,34.23
2023-03-30T06:53:39.791Z,34.24
2023-03-30T06:56:10.203Z,34.43
2023-03-30T06:58:39.234Z,34.21
2023-03-30T07:01:12.224Z,33.92
2023-03-30T07:03:41.405Z,34.19
2023-03-30T07:06:11.027Z,34.43
2023-03-30T07:08:41.694Z,33.99
2023-03-30T07:11:10.334Z,34.16
2023-03-30T07:13:39.389Z,33.98
2023-03-30T07:16:09.186Z,34.21
2023-03-30T07:18:37.929Z,34.20
2023-03-30T07:21:07.790Z,34.16
2023-03-30T07:23:36.376Z,34.16
2023-03-30T07:26:06.891Z,34.21
2023-03-30T07:28:38.520Z,34.27
2023-03-30T07:31:08.006Z,34.08
2023-03-30T07:33:37.896Z,34.16
2023-03-30T07:36:08.712Z,34.08
2023-03-30T07:38:37.520Z,34.25
2023-03-30T07:41:10.795Z,34.06
2023-03-30T07:43:40.610Z,34.01
2023-03-30T07:46:09.742Z,34.23
2023-03-30T07:48:38.561Z,34.16
2023-03-30T07:51:08.499Z,34.08
2023-03-30T07:53:37.492Z,34.07
2023-03-30T07:56:06.912Z,33.97
2023-03-30T07:58:37.284Z,33.95
2023-03-30T08:01:06.583Z,34.08
2023-03-30T08:03:37.116Z,34.09
2023-03-30T08:06:06.699Z,34.18
2023-03-30T08:08:35.470Z,34.04
2023-03-30T08:11:04.551Z,33.99
2023-03-30T08:13:33.925Z,34.22
2023-03-30T08:16:03.919Z,34.05
2023-03-30T08:18:33.088Z,34.20
2023-03-30T08:21:01.971Z,34.20
2023-03-30T08:23:31.080Z,34.25
2023-03-30T08:26:00.088Z,34.18
2023-03-30T08:28:29.109Z,34.07
2023-03-30T08:30:58.199Z,34.18
2023-03-30T08:33:28.254Z,34.21
2023-03-30T08:35:57.278Z,34.25
2023-03-30T08:38:26.046Z,34.09
2023-03-30T08:40:55.121Z,34.27
2023-03-30T08:43:40.753Z,34.20
2023-03-30T08:46:10.742Z,34.64
2023-03-30T08:48:42.709Z,34.42
2023-03-30T08:51:20.246Z,34.31
2023-03-30T08:53:49.112Z,35.32
2023-03-30T08:56:19.790Z,34.40
2023-03-30T08:58:54.474Z,34.44
2023-03-30T09:01:25.277Z,34.72
2023-03-30T09:04:05.647Z,34.85
2023-03-30T09:06:46.271Z,34.65
2023-03-30T09:09:17.220Z,34.54
2023-03-30T09:11:46.421Z,34.88
2023-03-30T09:14:20.322Z,34.96
2023-03-30T09:16:53.910Z,34.57
2023-03-30T09:19:26.795Z,34.75
2023-03-30T09:21:56.036Z,34.76
2023-03-30T09:24:27.477Z,34.75
2023-03-30T09:27:00.104Z,34.71
2023-03-30T09:29:30.050Z,34.63
2023-03-30T09:32:06.173Z,34.67
2023-03-30T09:34:41.173Z,34.98
2023-03-30T09:37:13.128Z,35.01
2023-03-30T09:39:42.582Z,34.76
2023-03-30T09:42:21.456Z,34.93
2023-03-30T09:44:52.866Z,35.09
2023-03-30T09:47:26.561Z,34.91
2023-03-30T09:50:01.444Z,35.22
2023-03-30T09:52:32.270Z,35.10
2023-03-30T09:55:26.108Z,34.87
2023-03-30T09:57:57.009Z,35.01
2023-03-30T10:00:28.286Z,34.85
2023-03-30T10:02:58.648Z,35.01
2023-03-30T10:05:28.885Z,35.11
2023-03-30T10:07:58.963Z,35.11
2023-03-30T10:10:34.783Z,35.11
2023-03-30T10:13:09.824Z,35.01
2023-03-30T10:15:40.384Z,35.15
2023-03-30T10:18:25.875Z,35.16
2023-03-30T10:21:01.779Z,35.18
2023-03-30T10:23:33.449Z,35.15
2023-03-30T10:26:04.124Z,35.22
2023-03-30T10:28:36.123Z,35.35
2023-03-30T10:31:06.709Z,35.00
2023-03-30T10:33:41.717Z,35.28
2023-03-30T10:36:12.681Z,35.18
2023-03-30T10:38:41.985Z,35.10
2023-03-30T10:41:12.037Z,35.16
2023-03-30T10:43:41.245Z,35.29
2023-03-30T10:46:19.969Z,35.27
2023-03-30T10:49:11.883Z,35.16
2023-03-30T10:51:51.138Z,35.16
2023-03-30T10:54:23.107Z,35.29
2023-03-30T10:56:54.363Z,35.09
2023-03-30T10:59:52.749Z,34.96
2023-03-30T11:02:32.137Z,35.14
2023-03-30T11:05:03.420Z,35.29
2023-03-30T11:07:36.464Z,35.22
2023-03-30T11:10:08.147Z,35.08
2023-03-30T11:12:40.506Z,35.20
2023-03-30T11:15:12.406Z,35.45
2023-03-30T11:17:45.861Z,35.60
2023-03-30T11:20:23.725Z,35.26
2023-03-30T11:22:58.621Z,35.29
2023-03-30T11:25:29.577Z,35.24
2023-03-30T11:28:01.209Z,35.19
2023-03-30T11:30:31.212Z,35.17
2023-03-30T11:33:03.435Z,35.26
2023-03-30T11:35:36.329Z,35.38
2023-03-30T11:38:10.613Z,35.19
2023-03-30T11:40:43.655Z,35.26
2023-03-30T11:43:13.443Z,35.35
2023-03-30T11:45:53.399Z,35.41
2023-03-30T11:48:59.917Z,35.21
2023-03-30T11:51:44.827Z,35.13
2023-03-30T11:55:03.143Z,35.18
2023-03-30T11:57:38.194Z,35.34
2023-03-30T12:00:27.687Z,35.47
2023-03-30T12:03:03.112Z,35.26
2023-03-30T12:05:34.408Z,35.35
2023-03-30T12:08:12.374Z,35.32
2023-03-30T12:10:43.181Z,35.40
2023-03-30T12:13:13.755Z,35.36
2023-03-30T12:15:46.815Z,35.39
2023-03-30T12:18:26.038Z,35.19
2023-03-30T12:20:56.937Z,35.33
2023-03-30T12:23:35.675Z,35.34
2023-03-30T12:26:12.610Z,35.41
2023-03-30T12:29:15.291Z,35.19
2023-03-30T12:32:04.852Z,35.52
2023-03-30T12:34:34.585Z,35.50
2023-03-30T12:37:10.276Z,35.50
2023-03-30T12:39:45.073Z,35.79
2023-03-30T12:42:27.444Z,35.55
2023-03-30T12:45:12.639Z,35.66
2023-03-30T12:47:51.018Z,35.80
2023-03-30T12:50:34.747Z,36.17
2023-03-30T12:53:30.624Z,35.86
2023-03-30T12:56:05.032Z,35.89
2023-03-30T12:59:05.959Z,35.87
2023-03-30T13:01:55.629Z,35.79
2023-03-30T13:04:25.271Z,36.12
2023-03-30T13:06:54.672Z,35.75
2023-03-30T13:09:55.056Z,35.83
2023-03-30T13:12:49.477Z,35.92
2023-03-30T13:15:43.496Z,35.93
2023-03-30T13:18:36.086Z,35.73
2023-03-30T13:21:20.046Z,36.10
2023-03-30T13:24:05.914Z,35.57
2023-03-30T13:26:45.268Z,35.87
2023-03-30T13:29:15.417Z,35.89
2023-03-30T13:32:00.645Z,36.19
2023-03-30T13:35:03.168Z,35.85
2023-03-30T13:38:03.984Z,35.88
2023-03-30T13:40:40.229Z,35.83
2023-03-30T13:43:18.630Z,35.99
2023-03-30T13:45:51.239Z,35.93
2023-03-30T13:48:36.429Z,35.82
2023-03-30T13:51:05.093Z,35.90
2023-03-30T13:53:42.783Z,35.95
2023-03-30T13:56:11.363Z,35.90
2023-03-30T13:58:39.791Z,35.90
2023-03-30T14:01:10.709Z,35.93
2023-03-30T14:03:42.310Z,35.85
2023-03-30T14:06:17.693Z,35.90
2023-03-30T14:08:48.030Z,35.97
2023-03-30T14:11:18.854Z,35.81
2023-03-30T14:13:49.156Z,35.99
2023-03-30T14:16:21.422Z,35.96
2023-03-30T14:18:51.556Z,36.01
2023-03-30T14:21:22.052Z,35.92
2023-03-30T14:23:52.105Z,35.89
2023-03-30T14:26:24.187Z,35.99
2023-03-30T14:28:55.781Z,35.85
2023-03-30T14:31:27.277Z,35.72
2023-03-30T14:33:57.298Z,36.18
2023-03-30T14:36:25.889Z,36.01
2023-03-30T14:38:55.294Z,35.97
2023-03-30T14:41:24.724Z,35.93
2023-03-30T14:43:55.993Z,36.01
2023-03-30T14:46:25.394Z,35.88
2023-03-30T14:48:53.974Z,35.85
2023-03-30T14:51:28.188Z,35.85
2023-03-30T14:53:57.781Z,36.25
2023-03-30T14:56:26.731Z,36.25
2023-03-30T14:58:55.188Z,36.27
2023-03-30T15:01:31.422Z,35.96
2023-03-30T15:04:00.880Z,36.49
2023-03-30T15:06:30.976Z,36.45
2023-03-30T15:09:02.675Z,36.50
2023-03-30T15:11:31.529Z,36.49
2023-03-30T15:14:03.942Z,37.73
2023-03-30T15:16:34.310Z,37.52
2023-03-30T15:19:04.732Z,37.27
2023-03-30T15:21:36.888Z,36.76
2023-03-30T15:24:07.715Z,36.74
2023-03-30T15:26:46.350Z,36.84
2023-03-30T15:29:15.456Z,37.12
2023-03-30T15:31:44.972Z,37.44
2023-03-30T15:34:16.398Z,37.29
2023-03-30T15:36:48.970Z,37.17
2023-03-30T15:39:21.836Z,36.88
2023-03-30T15:41:51.343Z,37.32
2023-03-30T15:44:20.282Z,37.86
2023-03-30T15:46:49.759Z,38.27
2023-03-30T15:49:20.117Z,37.80
2023-03-30T15:51:51.923Z,37.67
2023-03-30T15:54:23.394Z,37.23
2023-03-30T15:56:56.555Z,37.34
2023-03-30T15:59:27.525Z,37.33
2023-03-30T16:01:56.932Z,37.41
2023-03-30T16:04:26.115Z,37.39
2023-03-30T16:06:56.167Z,38.18
2023-03-30T16:09:24.843Z,37.81
2023-03-30T16:11:53.345Z,38.16
2023-03-30T16:14:21.969Z,38.85
2023-03-30T16:16:50.528Z,38.39
2023-03-30T16:19:20.911Z,38.83
2023-03-30T16:21:49.784Z,38.65
2023-03-30T16:24:19.698Z,38.89
2023-03-30T16:26:48.269Z,39.71
2023-03-30T16:29:21.693Z,39.36
2023-03-30T16:31:50.375Z,38.70
2023-03-30T16:34:18.971Z,38.59
2023-03-30T16:36:48.206Z,39.57
2023-03-30T16:39:20.743Z,38.80
2023-03-30T16:41:49.659Z,39.28
2023-03-30T16:44:18.400Z,38.98
2023-03-30T16:46:47.241Z,39.21
2023-03-30T16:49:16.920Z,38.65
2023-03-30T16:51:45.821Z,40.06
2023-03-30T16:54:29.524Z,38.92
2023-03-30T16:57:00.920Z,39.15
2023-03-30T16:59:31.778Z,38.94
2023-03-30T17:02:00.488Z,39.87
2023-03-30T17:04:29.062Z,39.27
2023-03-30T17:06:58.110Z,39.30
2023-03-30T17:09:27.312Z,38.82
2023-03-30T17:11:55.794Z,38.99
2023-03-30T17:14:25.816Z,39.00
2023-03-30T17:16:54.313Z,39.33
2023-03-30T17:19:22.862Z,38.67
2023-03-30T17:21:51.881Z,38.69
2023-03-30T17:24:20.620Z,38.89
2023-03-30T17:26:49.227Z,40.10
2023-03-30T17:29:17.839Z,39.56
2023-03-30T17:31:47.702Z,39.29
2023-03-30T17:34:16.462Z,39.34
2023-03-30T17:36:44.976Z,39.90
2023-03-30T17:39:14.448Z,39.42
2023-03-30T17:41:43.087Z,39.52
2023-03-30T17:44:11.554Z,39.46
2023-03-30T17:46:42.996Z,39.07
2023-03-30T17:49:17.348Z,39.13
2023-03-30T17:51:46.115Z,39.27
2023-03-30T17:54:14.985Z,39.25
2023-03-30T17:56:43.594Z,39.08
2023-03-30T17:59:12.356Z,39.57
2023-03-30T18:01:41.199Z,39.58
2023-03-30T18:04:10.049Z,39.21
2023-03-30T18:06:40.807Z,39.68
2023-03-30T18:09:15.167Z,39.77
2023-03-30T18:11:44.111Z,40.56
2023-03-30T18:14:12.658Z,40.47
2023-03-30T18:16:43.660Z,40.56
2023-03-30T18:19:13.317Z,40.83
2023-03-30T18:21:43.326Z,40.85
2023-03-30T18:24:11.946Z,41.02
2023-03-30T18:26:43.002Z,40.90
2023-03-30T18:29:20.449Z,40.68
2023-03-30T18:31:49.324Z,40.56
2023-03-30T18:34:19.725Z,40.42
2023-03-30T18:36:49.566Z,40.54
2023-03-30T18:39:19.836Z,40.35
2023-03-30T18:41:48.593Z,40.31
2023-03-30T18:44:17.314Z,40.26
2023-03-30T18:46:46.483Z,40.19
2023-03-30T18:49:15.682Z,40.17
2023-03-30T18:51:44.318Z,40.12
2023-03-30T18:54:14.093Z,40.03
2023-03-30T18:56:43.424Z,40.10
2023-03-30T18:59:11.980Z,40.03
2023-03-30T19:01:40.585Z,39.86
2023-03-30T19:04:09.145Z,39.70
2023-03-30T19:06:38.325Z,39.96
2023-03-30T19:09:06.750Z,39.95
2023-03-30T19:11:36.598Z,39.73
2023-03-30T19:14:05.065Z,39.93
2023-03-30T19:16:33.626Z,39.81
2023-03-30T19:19:02.152Z,39.68
2023-03-30T19:21:30.946Z,39.83
2023-03-30T19:23:59.363Z,39.66
2023-03-30T19:26:28.140Z,39.64
2023-03-30T19:28:57.981Z,39.65
2023-03-30T19:31:26.541Z,39.74
2023-03-30T19:33:55.119Z,39.80
2023-03-30T19:36:25.316Z,39.61
2023-03-30T19:38:54.673Z,39.63
2023-03-30T19:41:23.086Z,39.47
2023-03-30T19:43:51.599Z,39.73
2023-03-30T19:46:22.150Z,39.73
2023-03-30T19:48:50.760Z,39.61
2023-03-30T19:51:19.732Z,39.67
2023-03-30T19:53:48.280Z,39.86
2023-03-30T19:56:16.763Z,39.73
2023-03-30T19:58:45.269Z,39.59
2023-03-30T20:01:13.678Z,39.66
2023-03-30T20:03:43.603Z,39.67
2023-03-30T20:06:12.597Z,39.79
2023-03-30T20:08:41.324Z,39.53
2023-03-30T20:11:10.040Z,39.68
2023-03-30T20:13:38.674Z,39.60
2023-03-30T20:16:07.354Z,39.59
2023-03-30T20:18:35.964Z,39.66
2023-03-30T20:21:06.937Z,39.67
2023-03-30T20:23:35.646Z,39.76
2023-03-30T20:26:04.863Z,39.64
2023-03-30T20:28:33.486Z,39.49
2023-03-30T20:31:02.049Z,39.59
2023-03-30T20:33:30.876Z,39.70
2023-03-30T20:35:59.786Z,39.47
2023-03-30T20:38:29.647Z,39.63
2023-03-30T20:40:58.657Z,39.49
2023-03-30T20:43:27.359Z,39.48
2023-03-30T20:46:02.411Z,39.48
2023-03-30T20:48:33.721Z,39.65
2023-03-30T20:51:03.808Z,39.59
2023-03-30T20:53:34.255Z,39.57
2023-03-30T20:56:03.064Z,39.53
2023-03-30T20:58:31.741Z,39.65
2023-03-30T21:01:01.705Z,39.43
2023-03-30T21:03:30.328Z,39.52
2023-03-30T21:06:03.180Z,39.44
2023-03-30T21:08:33.245Z,39.52
2023-03-30T21:11:01.940Z,39.57
2023-03-30T21:13:30.539Z,39.42
2023-03-30T21:15:59.498Z,39.57
2023-03-30T21:18:27.936Z,39.39
2023-03-30T21:20:56.967Z,39.37
2023-03-30T21:23:26.826Z,39.56
2023-03-30T21:25:58.228Z,39.66
2023-03-30T21:28:28.628Z,39.36
2023-03-30T21:30:57.854Z,39.49
2023-03-30T21:33:28.822Z,39.50
2023-03-30T21:35:58.657Z,39.32
2023-03-30T21:38:28.081Z,39.39
2023-03-30T21:41:02.141Z,39.52
2023-03-30T21:43:31.409Z,39.40
2023-03-30T21:46:01.026Z,39.38
2023-03-30T21:48:30.948Z,39.50
2023-03-30T21:51:00.152Z,39.41
2023-03-30T21:53:28.752Z,39.72
2023-03-30T21:55:57.694Z,39.55
2023-03-30T21:58:28.448Z,39.48
2023-03-30T22:01:08.975Z,39.42
2023-03-30T22:03:40.194Z,39.34
2023-03-30T22:06:10.897Z,39.35
2023-03-30T22:08:40.120Z,39.48
2023-03-30T22:11:09.943Z,39.30
2023-03-30T22:13:39.978Z,39.46
2023-03-30T22:16:12.718Z,39.24
2023-03-30T22:18:41.371Z,39.48
2023-03-30T22:21:12.411Z,39.40
2023-03-30T22:23:40.933Z,39.30
2023-03-30T22:26:09.359Z,39.41
2023-03-30T22:28:39.221Z,39.33
2023-03-30T22:31:08.435Z,39.42
2023-03-30T22:33:36.937Z,39.23
2023-03-30T22:36:07.717Z,39.33
2023-03-30T22:38:36.413Z,39.21
2023-03-30T22:41:07.593Z,39.38
2023-03-30T22:43:36.554Z,39.23
2023-03-30T22:46:06.930Z,39.38
2023-03-30T22:48:35.812Z,39.27
2023-03-30T22:51:04.530Z,39.24
2023-03-30T22:53:33.287Z,39.18
2023-03-30T22:56:01.858Z,39.29
2023-03-30T22:58:30.352Z,39.31
2023-03-30T23:01:03.641Z,39.45
2023-03-30T23:03:33.624Z,39.30
2023-03-30T23:06:02.128Z,39.37
2023-03-30T23:08:30.905Z,39.21
2023-03-30T23:11:04.964Z,39.46
2023-03-30T23:13:37.837Z,39.36
2023-03-30T23:16:08.380Z,39.37
2023-03-30T23:18:38.320Z,39.26
2023-03-30T23:21:07.570Z,39.27
2023-03-30T23:23:36.911Z,39.35
2023-03-30T23:26:09.029Z,39.53
2023-03-30T23:28:38.696Z,39.27
2023-03-30T23:31:10.819Z,39.29
2023-03-30T23:33:41.128Z,39.25
2023-03-30T23:36:10.448Z,39.36
2023-03-30T23:38:39.280Z,39.36
2023-03-30T23:41:07.902Z,39.47
2023-03-30T23:43:36.532Z,39.23
2023-03-30T23:46:05.593Z,39.23
2023-03-30T23:48:34.507Z,39.44
2023-03-30T23:51:04.905Z,39.18
2023-03-30T23:53:33.388Z,39.28
2023-03-30T23:56:06.117Z,39.21
2023-03-30T23:58:34.877Z,39.37
